createdAt,value
2023-04-08T00:00:24.558Z,11.30
2023-04-08T00:02:51.344Z,11.63
2023-04-08T00:05:18.823Z,10.83
2023-04-08T00:07:45.924Z,12.57
2023-04-08T00:10:12.686Z,14.50
2023-04-08T00:12:39.332Z,12.97
2023-04-08T00:15:06.281Z,13.50
2023-04-08T00:17:33.189Z,11.70
2023-04-08T00:20:00.120Z,10.60
2023-04-08T00:22:26.808Z,11.53
2023-04-08T00:24:53.470Z,11.43
2023-04-08T00:27:20.193Z,10.63
2023-04-08T00:29:46.871Z,10.37
2023-04-08T00:32:13.739Z,10.53
2023-04-08T00:34:40.380Z,10.73
2023-04-08T00:37:07.064Z,11.27
2023-04-08T00:39:33.773Z,10.63
2023-04-08T00:42:01.900Z,10.97
2023-04-08T00:44:29.244Z,10.87
2023-04-08T00:46:56.098Z,10.47
2023-04-08T00:49:22.772Z,10.47
2023-04-08T00:51:49.436Z,11.83
2023-04-08T00:54:16.135Z,10.53
2023-04-08T00:56:43.677Z,11.60
2023-04-08T00:59:10.458Z,10.43
2023-04-08T01:01:44.819Z,10.07
2023-04-08T01:04:23.861Z,11.80
2023-04-08T01:07:09.463Z,10.63
2023-04-08T01:09:38.169Z,10.40
2023-04-08T01:12:06.492Z,10.73
2023-04-08T01:14:35.598Z,11.47
2023-04-08T01:17:02.479Z,10.37
2023-04-08T01:19:30.811Z,9.77
2023-04-08T01:22:01.606Z,11.33
2023-04-08T01:24:30.951Z,10.60
2023-04-08T01:26:58.044Z,10.90
2023-04-08T01:29:26.106Z,12.70
2023-04-08T01:31:53.420Z,10.10
2023-04-08T01:34:21.002Z,11.83
2023-04-08T01:36:49.509Z,11.73
2023-04-08T01:39:17.711Z,11.00
2023-04-08T01:41:46.646Z,9.90
2023-04-08T01:44:14.080Z,10.03
2023-04-08T01:46:42.491Z,10.03
2023-04-08T01:49:09.528Z,12.10
2023-04-08T01:51:37.740Z,11.10
2023-04-08T01:54:05.387Z,10.90
2023-04-08T01:56:34.440Z,10.07
2023-04-08T01:59:02.003Z,10.70
2023-04-08T02:01:29.598Z,10.20
2023-04-08T02:03:57.875Z,12.23
2023-04-08T02:06:26.554Z,10.57
2023-04-08T02:08:53.510Z,11.93
2023-04-08T02:11:21.447Z,11.50
2023-04-08T02:13:48.921Z,12.67
2023-04-08T02:16:21.492Z,11.00
2023-04-08T02:18:54.478Z,12.33
2023-04-08T02:21:22.514Z,10.03
2023-04-08T02:23:51.211Z,10.87
2023-04-08T02:26:19.379Z,10.90
2023-04-08T02:28:48.238Z,11.67
2023-04-08T02:31:16.989Z,10.63
2023-04-08T02:33:45.931Z,11.53
2023-04-08T02:36:13.104Z,10.10
2023-04-08T02:38:40.673Z,10.37
2023-04-08T02:41:07.350Z,10.73
2023-04-08T02:43:34.305Z,10.37
2023-04-08T02:46:05.595Z,10.07
2023-04-08T02:48:32.278Z,11.87
2023-04-08T02:50:58.976Z,12.73
2023-04-08T02:53:26.406Z,11.60
2023-04-08T02:55:53.164Z,11.77
2023-04-08T02:58:20.037Z,10.83
2023-04-08T03:00:46.781Z,11.03
2023-04-08T03:03:13.591Z,12.23
2023-04-08T03:05:40.750Z,13.73
2023-04-08T03:08:07.371Z,11.60
2023-04-08T03:10:34.024Z,12.17
2023-04-08T03:13:00.865Z,12.93
2023-04-08T03:15:27.561Z,11.73
2023-04-08T03:17:54.380Z,12.17
2023-04-08T03:20:21.204Z,11.83
2023-04-08T03:22:48.004Z,13.23
2023-04-08T03:25:14.672Z,11.40
2023-04-08T03:27:41.323Z,11.40
2023-04-08T03:30:09.023Z,12.60
2023-04-08T03:32:35.870Z,12.30
2023-04-08T03:35:02.616Z,12.70
2023-04-08T03:37:29.287Z,12.43
2023-04-08T03:39:56.140Z,11.07
2023-04-08T03:42:22.929Z,11.60
2023-04-08T03:44:49.724Z,13.90
2023-04-08T03:47:16.440Z,11.03
2023-04-08T03:49:43.161Z,11.63
2023-04-08T03:52:09.856Z,11.57
2023-04-08T03:54:36.527Z,12.77
2023-04-08T03:57:03.226Z,10.70
2023-04-08T03:59:29.985Z,10.83
2023-04-08T04:01:57.018Z,11.67
2023-04-08T04:04:24.057Z,12.90
2023-04-08T04:06:50.819Z,12.90
2023-04-08T04:09:17.613Z,11.57
2023-04-08T04:11:44.353Z,11.83
2023-04-08T04:14:11.053Z,11.00
2023-04-08T04:16:38.057Z,12.13
2023-04-08T04:19:04.874Z,13.07
2023-04-08T04:21:31.766Z,11.03
2023-04-08T04:23:58.401Z,11.30
2023-04-08T04:26:25.518Z,11.37
2023-04-08T04:28:52.566Z,13.20
2023-04-08T04:31:23.341Z,12.80
2023-04-08T04:33:50.229Z,11.57
2023-04-08T04:36:16.893Z,11.90
2023-04-08T04:38:44.031Z,11.70
2023-04-08T04:41:10.993Z,11.90
2023-04-08T04:43:37.963Z,12.13
2023-04-08T04:46:07.101Z,13.07
2023-04-08T04:48:33.856Z,12.90
2023-04-08T04:51:04.061Z,13.00
2023-04-08T04:53:31.352Z,9.83
2023-04-08T04:55:58.168Z,11.60
2023-04-08T04:58:25.313Z,11.23
2023-04-08T05:00:52.046Z,11.50
2023-04-08T05:03:18.843Z,10.97
2023-04-08T05:05:45.948Z,13.10
2023-04-08T05:08:12.715Z,11.63
2023-04-08T05:10:40.720Z,11.77
2023-04-08T05:13:07.356Z,12.47
2023-04-08T05:15:34.017Z,11.57
2023-04-08T05:18:01.047Z,12.40
2023-04-08T05:20:27.769Z,11.70
2023-04-08T05:22:54.517Z,11.93
2023-04-08T05:25:21.461Z,11.70
2023-04-08T05:27:48.135Z,9.90
2023-04-08T05:30:14.962Z,12.00
2023-04-08T05:32:41.817Z,13.60
2023-04-08T05:35:09.842Z,11.40
2023-04-08T05:37:36.599Z,10.03
2023-04-08T05:40:03.728Z,11.07
2023-04-08T05:42:32.182Z,11.30
2023-04-08T05:44:58.964Z,11.30
2023-04-08T05:47:25.801Z,10.63
2023-04-08T05:49:52.760Z,11.47
2023-04-08T05:52:19.506Z,10.23
2023-04-08T05:54:46.197Z,12.63
2023-04-08T05:57:12.835Z,10.73
2023-04-08T05:59:39.475Z,8.77
2023-04-08T06:02:06.281Z,9.60
2023-04-08T06:04:33.182Z,9.10
2023-04-08T06:07:02.768Z,9.70
2023-04-08T06:09:29.460Z,8.20
2023-04-08T06:11:57.544Z,10.77
2023-04-08T06:14:24.420Z,9.10
2023-04-08T06:16:53.080Z,9.43
2023-04-08T06:19:19.943Z,8.00
2023-04-08T06:21:47.165Z,6.90
2023-04-08T06:24:13.811Z,7.70
2023-04-08T06:26:40.569Z,6.77
2023-04-08T06:29:07.935Z,7.03
2023-04-08T06:31:34.665Z,7.77
2023-04-08T06:34:01.337Z,6.33
2023-04-08T06:36:28.439Z,6.73
2023-04-08T06:38:55.135Z,6.00
2023-04-08T06:41:21.829Z,5.83
2023-04-08T06:43:49.361Z,7.57
2023-04-08T06:46:16.557Z,6.43
2023-04-08T06:48:43.476Z,6.90
2023-04-08T06:51:10.468Z,5.97
2023-04-08T06:53:37.132Z,7.50
2023-04-08T06:56:04.049Z,5.37
2023-04-08T06:58:30.811Z,6.20
2023-04-08T07:00:58.878Z,7.47
2023-04-08T07:03:26.475Z,5.67
2023-04-08T07:05:53.823Z,5.90
2023-04-08T07:08:20.515Z,6.63
2023-04-08T07:10:47.451Z,8.17
2023-04-08T07:13:14.233Z,5.80
2023-04-08T07:15:41.216Z,6.23
2023-04-08T07:18:07.884Z,6.67
2023-04-08T07:20:38.154Z,6.27
2023-04-08T07:23:05.081Z,6.77
2023-04-08T07:25:33.291Z,5.33
2023-04-08T07:27:59.922Z,4.87
2023-04-08T07:30:26.652Z,5.40
2023-04-08T07:32:55.498Z,5.23
2023-04-08T07:35:26.007Z,5.87
2023-04-08T07:37:53.011Z,7.10
2023-04-08T07:40:19.687Z,5.27
2023-04-08T07:42:46.509Z,6.07
2023-04-08T07:45:13.192Z,7.17
2023-04-08T07:47:39.948Z,6.17
2023-04-08T07:50:07.279Z,6.13
2023-04-08T07:52:34.252Z,6.67
2023-04-08T07:55:01.909Z,6.67
2023-04-08T07:57:28.673Z,6.27
2023-04-08T07:59:55.948Z,6.90
2023-04-08T08:02:22.963Z,6.40
2023-04-08T08:04:49.892Z,8.07
2023-04-08T08:07:16.643Z,8.17
2023-04-08T08:09:43.271Z,9.23
2023-04-08T08:12:10.022Z,8.67
2023-04-08T08:14:36.744Z,8.33
2023-04-08T08:17:03.725Z,7.87
2023-04-08T08:19:30.599Z,9.83
2023-04-08T08:21:57.539Z,9.33
2023-04-08T08:24:24.354Z,8.93
2023-04-08T08:26:51.035Z,10.03
2023-04-08T08:29:17.733Z,9.33
2023-04-08T08:31:44.414Z,7.87
2023-04-08T08:34:11.095Z,8.47
2023-04-08T08:36:37.744Z,7.40
2023-04-08T08:39:04.461Z,8.40
2023-04-08T08:41:35.837Z,8.87
2023-04-08T08:44:02.965Z,7.83
2023-04-08T08:46:29.692Z,7.57
2023-04-08T08:48:56.808Z,7.80
2023-04-08T08:51:24.172Z,8.83
2023-04-08T08:53:51.095Z,8.03
2023-04-08T08:56:18.957Z,8.03
2023-04-08T08:58:47.313Z,8.53
2023-04-08T09:01:32.946Z,6.67
2023-04-08T09:04:20.134Z,6.93
2023-04-08T09:06:49.931Z,8.47
2023-04-08T09:09:17.245Z,8.33
2023-04-08T09:11:44.937Z,7.23
2023-04-08T09:14:18.288Z,7.13
2023-04-08T09:16:45.238Z,7.50
2023-04-08T09:19:12.246Z,6.80
2023-04-08T09:21:41.089Z,8.03
2023-04-08T09:24:08.503Z,8.10
2023-04-08T09:26:37.337Z,7.13
2023-04-08T09:29:18.209Z,7.50
2023-04-08T09:31:56.561Z,6.93
2023-04-08T09:34:23.867Z,7.33
2023-04-08T09:36:51.327Z,8.53
2023-04-08T09:39:18.385Z,7.63
2023-04-08T09:41:47.933Z,7.70
2023-04-08T09:44:16.558Z,7.10
2023-04-08T09:46:49.429Z,7.30
2023-04-08T09:49:19.140Z,7.90
2023-04-08T09:52:00.727Z,8.20
2023-04-08T09:54:35.376Z,9.67
2023-04-08T09:57:05.538Z,7.53
2023-04-08T09:59:34.579Z,7.47
2023-04-08T10:02:04.138Z,8.60
2023-04-08T10:04:32.248Z,7.03
2023-04-08T10:07:03.375Z,9.57
2023-04-08T10:09:30.429Z,8.67
2023-04-08T10:11:57.127Z,7.50
2023-04-08T10:14:23.858Z,8.63
2023-04-08T10:16:50.579Z,9.93
2023-04-08T10:19:36.190Z,7.60
2023-04-08T10:22:02.824Z,9.80
2023-04-08T10:24:29.520Z,7.23
2023-04-08T10:26:56.422Z,16.23
2023-04-08T10:29:28.943Z,7.93
2023-04-08T10:31:57.347Z,7.10
2023-04-08T10:34:26.238Z,7.43
2023-04-08T10:36:54.257Z,7.90
2023-04-08T10:39:21.710Z,8.03
2023-04-08T10:41:49.578Z,7.20
2023-04-08T10:44:20.722Z,8.03
2023-04-08T10:46:48.368Z,8.27
2023-04-08T10:49:17.416Z,7.83
2023-04-08T10:51:44.768Z,7.97
2023-04-08T10:54:12.770Z,7.03
2023-04-08T10:56:52.343Z,7.50
2023-04-08T10:59:29.127Z,8.33
2023-04-08T11:01:55.989Z,7.13
2023-04-08T11:04:23.579Z,7.93
2023-04-08T11:06:51.466Z,7.70
2023-04-08T11:09:18.268Z,7.97
2023-04-08T11:11:45.833Z,7.97
2023-04-08T11:14:12.878Z,7.27
2023-04-08T11:16:39.876Z,8.67
2023-04-08T11:19:07.514Z,7.60
2023-04-08T11:21:38.730Z,7.50
2023-04-08T11:24:12.133Z,7.33
2023-04-08T11:26:39.052Z,7.00
2023-04-08T11:29:06.432Z,6.90
2023-04-08T11:31:33.693Z,7.10
2023-04-08T11:34:00.408Z,6.90
2023-04-08T11:36:29.058Z,7.10
2023-04-08T11:38:55.948Z,6.60
2023-04-08T11:41:23.407Z,6.50
2023-04-08T11:43:53.805Z,6.87
2023-04-08T11:46:20.807Z,6.73
2023-04-08T11:48:57.105Z,7.03
2023-04-08T11:51:24.087Z,6.50
2023-04-08T11:53:52.704Z,6.77
2023-04-08T11:56:23.365Z,6.47
2023-04-08T11:58:50.546Z,5.83
2023-04-08T12:01:17.507Z,6.13
2023-04-08T12:03:54.322Z,7.33
2023-04-08T12:06:21.131Z,7.27
2023-04-08T12:08:47.985Z,7.13
2023-04-08T12:11:19.988Z,6.20
2023-04-08T12:13:47.230Z,6.30
2023-04-08T12:16:14.304Z,7.03
2023-04-08T12:18:41.594Z,6.73
2023-04-08T12:21:08.296Z,6.60
2023-04-08T12:23:34.926Z,8.17
2023-04-08T12:26:02.098Z,6.90
2023-04-08T12:28:28.829Z,6.23
2023-04-08T12:30:55.564Z,5.53
2023-04-08T12:33:22.224Z,5.93
2023-04-08T12:35:48.888Z,6.33
2023-04-08T12:38:15.629Z,5.47
2023-04-08T12:40:42.299Z,5.77
2023-04-08T12:43:09.033Z,5.73
2023-04-08T12:45:36.412Z,6.27
2023-04-08T12:48:03.141Z,6.17
2023-04-08T12:50:29.883Z,5.70
2023-04-08T12:52:56.652Z,5.87
2023-04-08T12:55:24.981Z,6.13
2023-04-08T12:57:51.934Z,5.90
2023-04-08T13:00:19.269Z,6.13
2023-04-08T13:02:46.523Z,5.53
2023-04-08T13:05:13.258Z,5.47
2023-04-08T13:07:40.267Z,5.60
2023-04-08T13:10:07.850Z,5.10
2023-04-08T13:12:34.552Z,5.57
2023-04-08T13:15:01.353Z,5.27
2023-04-08T13:17:28.236Z,6.07
2023-04-08T13:19:55.348Z,5.53
2023-04-08T13:22:22.009Z,5.20
2023-04-08T13:24:48.723Z,5.17
2023-04-08T13:27:15.424Z,4.97
2023-04-08T13:29:42.049Z,4.40
2023-04-08T13:32:08.824Z,4.57
2023-04-08T13:34:35.673Z,4.63
2023-04-08T13:37:03.074Z,4.17
2023-04-08T13:39:29.732Z,5.80
2023-04-08T13:41:56.819Z,4.53
2023-04-08T13:44:23.557Z,4.67
2023-04-08T13:46:50.255Z,4.10
2023-04-08T13:49:16.875Z,4.50
2023-04-08T13:51:43.500Z,4.10
2023-04-08T13:54:10.173Z,4.20
2023-04-08T13:56:36.847Z,5.10
2023-04-08T13:59:03.596Z,3.90
2023-04-08T14:01:30.337Z,3.90
2023-04-08T14:03:57.112Z,4.30
2023-04-08T14:06:23.769Z,4.57
2023-04-08T14:08:50.721Z,4.20
2023-04-08T14:11:17.514Z,5.37
2023-04-08T14:13:44.129Z,4.27
2023-04-08T14:16:10.820Z,4.20
2023-04-08T14:18:37.565Z,4.30
2023-04-08T14:21:05.346Z,3.67
2023-04-08T14:23:31.972Z,3.77
2023-04-08T14:25:58.721Z,4.07
2023-04-08T14:28:25.489Z,3.87
2023-04-08T14:30:52.236Z,3.53
2023-04-08T14:33:18.982Z,4.40
2023-04-08T14:35:45.808Z,3.47
2023-04-08T14:38:12.545Z,4.50
2023-04-08T14:40:39.302Z,3.67
2023-04-08T14:43:06.142Z,3.23
2023-04-08T14:45:33.081Z,3.90
2023-04-08T14:47:59.792Z,3.20
2023-04-08T14:50:26.546Z,3.23
2023-04-08T14:52:53.186Z,3.60
2023-04-08T14:55:22.289Z,4.27
2023-04-08T14:57:48.957Z,3.87
2023-04-08T15:00:15.854Z,3.70
2023-04-08T15:02:42.637Z,3.33
2023-04-08T15:05:09.335Z,3.20
2023-04-08T15:07:36.390Z,2.57
2023-04-08T15:10:03.132Z,4.10
2023-04-08T15:12:29.910Z,2.90
2023-04-08T15:14:56.561Z,3.50
2023-04-08T15:17:23.366Z,2.70
2023-04-08T15:19:50.225Z,3.60
2023-04-08T15:22:16.896Z,2.97
2023-04-08T15:24:44.092Z,3.60
2023-04-08T15:27:11.264Z,2.90
2023-04-08T15:29:37.968Z,4.13
2023-04-08T15:32:04.638Z,9.33
2023-04-08T15:34:31.318Z,4.63
2023-04-08T15:36:58.405Z,4.67
2023-04-08T15:39:25.268Z,4.10
2023-04-08T15:41:52.564Z,4.50
2023-04-08T15:44:19.296Z,4.10
2023-04-08T15:46:46.013Z,3.33
2023-04-08T15:49:12.817Z,3.83
2023-04-08T15:51:39.542Z,3.17
2023-04-08T15:54:06.349Z,3.47
2023-04-08T15:56:33.579Z,3.13
2023-04-08T15:59:00.613Z,3.23
2023-04-08T16:01:27.390Z,3.30
2023-04-08T16:03:54.103Z,4.00
2023-04-08T16:06:20.920Z,4.07
2023-04-08T16:08:48.502Z,4.53
2023-04-08T16:11:15.592Z,3.83
2023-04-08T16:13:42.514Z,3.80
2023-04-08T16:16:09.350Z,3.60
2023-04-08T16:18:36.126Z,4.93
2023-04-08T16:21:05.934Z,4.43
2023-04-08T16:23:34.003Z,3.97
2023-04-08T16:26:01.735Z,4.40
2023-04-08T16:28:28.531Z,3.37
2023-04-08T16:30:55.340Z,4.40
2023-04-08T16:33:29.800Z,4.93
2023-04-08T16:35:57.131Z,3.87
2023-04-08T16:38:24.506Z,4.77
2023-04-08T16:40:51.575Z,3.93
2023-04-08T16:43:18.351Z,4.10
2023-04-08T16:45:46.036Z,3.80
2023-04-08T16:48:13.437Z,3.53
2023-04-08T16:50:40.322Z,4.47
2023-04-08T16:53:07.072Z,5.10
2023-04-08T16:55:33.999Z,3.77
2023-04-08T16:58:01.285Z,3.50
2023-04-08T17:00:28.365Z,3.03
2023-04-08T17:02:57.065Z,3.53
2023-04-08T17:05:24.415Z,3.03
2023-04-08T17:07:51.431Z,3.00
2023-04-08T17:10:19.055Z,3.50
2023-04-08T17:12:46.018Z,3.10
2023-04-08T17:15:12.875Z,2.60
2023-04-08T17:17:39.522Z,3.17
2023-04-08T17:20:07.312Z,2.83
2023-04-08T17:22:33.993Z,3.20
2023-04-08T17:25:00.632Z,3.20
2023-04-08T17:27:27.478Z,3.30
2023-04-08T17:29:57.497Z,2.80
2023-04-08T17:32:24.718Z,3.10
2023-04-08T17:34:51.862Z,3.30
2023-04-08T17:37:18.627Z,4.73
2023-04-08T17:39:45.630Z,3.13
2023-04-08T17:42:13.168Z,3.40
2023-04-08T17:44:42.034Z,3.70
2023-04-08T17:47:08.790Z,3.93
2023-04-08T17:49:35.491Z,3.47
2023-04-08T17:52:02.115Z,3.30
2023-04-08T17:54:28.865Z,4.77
2023-04-08T17:56:56.065Z,4.60
2023-04-08T17:59:22.750Z,4.33
2023-04-08T18:01:49.541Z,4.73
2023-04-08T18:04:16.787Z,4.47
2023-04-08T18:06:43.912Z,4.40
2023-04-08T18:09:10.648Z,4.67
2023-04-08T18:11:37.275Z,4.80
2023-04-08T18:14:04.024Z,6.33
2023-04-08T18:16:30.734Z,8.60
2023-04-08T18:18:57.417Z,5.70
2023-04-08T18:21:24.070Z,5.53
2023-04-08T18:23:51.067Z,6.33
2023-04-08T18:26:18.086Z,5.60
2023-04-08T18:28:44.792Z,5.53
2023-04-08T18:31:11.531Z,7.43
2023-04-08T18:33:39.037Z,5.73
2023-04-08T18:36:09.689Z,6.57
2023-04-08T18:38:36.719Z,7.47
2023-04-08T18:41:03.977Z,8.27
2023-04-08T18:43:30.991Z,9.67
2023-04-08T18:45:57.987Z,9.10
2023-04-08T18:48:24.775Z,9.23
2023-04-08T18:50:51.499Z,9.80
2023-04-08T18:53:18.258Z,10.23
2023-04-08T18:55:45.485Z,10.60
2023-04-08T18:58:12.630Z,10.90
2023-04-08T19:00:41.374Z,11.47
2023-04-08T19:03:10.117Z,10.13
2023-04-08T19:05:37.517Z,10.43
2023-04-08T19:08:04.656Z,10.13
2023-04-08T19:10:31.942Z,9.87
2023-04-08T19:12:59.190Z,10.73
2023-04-08T19:15:26.464Z,10.23
2023-04-08T19:17:54.106Z,8.93
2023-04-08T19:20:21.207Z,8.93
2023-04-08T19:22:48.912Z,9.27
2023-04-08T19:25:16.015Z,8.57
2023-04-08T19:27:42.898Z,9.80
2023-04-08T19:30:09.667Z,9.83
2023-04-08T19:32:36.457Z,9.33
2023-04-08T19:35:03.417Z,8.73
2023-04-08T19:37:30.298Z,9.57
2023-04-08T19:39:57.105Z,9.20
2023-04-08T19:42:23.986Z,10.03
2023-04-08T19:44:50.797Z,9.80
2023-04-08T19:47:17.627Z,10.23
2023-04-08T19:49:44.394Z,8.47
2023-04-08T19:52:11.309Z,9.87
2023-04-08T19:54:38.010Z,9.23
2023-04-08T19:57:06.284Z,8.50
2023-04-08T19:59:32.981Z,8.87
2023-04-08T20:01:59.850Z,10.33
2023-04-08T20:04:26.815Z,9.47
2023-04-08T20:06:53.643Z,8.90
2023-04-08T20:09:20.448Z,9.97
2023-04-08T20:11:47.212Z,8.70
2023-04-08T20:14:14.094Z,9.07
2023-04-08T20:16:40.792Z,9.43
2023-04-08T20:19:07.503Z,11.60
2023-04-08T20:21:34.187Z,8.50
2023-04-08T20:24:01.000Z,9.30
2023-04-08T20:26:27.961Z,9.13
2023-04-08T20:28:57.864Z,9.40
2023-04-08T20:31:25.541Z,7.87
2023-04-08T20:33:52.264Z,8.37
2023-04-08T20:36:19.008Z,8.13
2023-04-08T20:38:45.821Z,16.80
2023-04-08T20:41:17.280Z,10.53
2023-04-08T20:43:44.153Z,12.47
2023-04-08T20:46:10.864Z,41.50
2023-04-08T20:48:37.586Z,10.40
2023-04-08T20:51:04.278Z,9.03
2023-04-08T20:53:31.429Z,8.87
2023-04-08T20:55:58.259Z,9.07
2023-04-08T20:58:24.982Z,10.20
2023-04-08T21:00:51.746Z,8.20
2023-04-08T21:03:18.785Z,9.10
2023-04-08T21:05:46.941Z,9.53
2023-04-08T21:08:13.711Z,8.50
2023-04-08T21:10:40.355Z,8.20
2023-04-08T21:13:07.098Z,9.50
2023-04-08T21:15:33.860Z,8.33
2023-04-08T21:18:00.677Z,7.87
2023-04-08T21:20:27.437Z,9.37
2023-04-08T21:22:54.139Z,9.03
2023-04-08T21:25:21.025Z,8.90
2023-04-08T21:27:47.749Z,8.97
2023-04-08T21:30:16.788Z,10.90
2023-04-08T21:32:43.890Z,9.73
2023-04-08T21:35:10.885Z,10.07
2023-04-08T21:37:37.561Z,10.53
2023-04-08T21:40:04.378Z,9.27
2023-04-08T21:42:32.739Z,8.97
2023-04-08T21:44:59.693Z,9.93
2023-04-08T21:47:26.657Z,9.83
2023-04-08T21:49:53.361Z,8.80
2023-04-08T21:52:20.020Z,7.37
2023-04-08T21:54:52.447Z,8.07
2023-04-08T21:57:19.288Z,7.17
2023-04-08T21:59:45.993Z,7.97
2023-04-08T22:02:12.928Z,8.17
2023-04-08T22:04:39.756Z,6.90
2023-04-08T22:07:06.659Z,9.13
2023-04-08T22:09:33.547Z,9.07
2023-04-08T22:12:01.445Z,6.80
2023-04-08T22:14:28.212Z,7.70
2023-04-08T22:16:54.934Z,7.30
2023-04-08T22:19:21.613Z,7.33
2023-04-08T22:21:50.103Z,7.50
2023-04-08T22:24:19.872Z,8.13
2023-04-08T22:26:46.817Z,6.10
2023-04-08T22:29:13.490Z,7.53
2023-04-08T22:31:40.274Z,7.63
2023-04-08T22:34:06.921Z,7.93
2023-04-08T22:36:33.568Z,9.47
2023-04-08T22:39:00.182Z,6.87
2023-04-08T22:41:26.950Z,9.43
2023-04-08T22:43:53.677Z,9.40
2023-04-08T22:46:20.385Z,8.43
2023-04-08T22:48:47.554Z,13.17
2023-04-08T22:51:14.457Z,14.97
2023-04-08T22:53:41.111Z,11.57
2023-04-08T22:56:07.837Z,9.93
2023-04-08T22:58:34.702Z,9.47
2023-04-08T23:01:02.419Z,7.73
2023-04-08T23:03:29.147Z,8.03
2023-04-08T23:05:55.757Z,8.37
2023-04-08T23:08:22.387Z,8.47
2023-04-08T23:10:49.165Z,7.87
2023-04-08T23:13:15.843Z,8.27
2023-04-08T23:15:42.510Z,7.60
2023-04-08T23:18:09.191Z,8.13
2023-04-08T23:20:35.906Z,8.43
2023-04-08T23:23:03.300Z,7.73
2023-04-08T23:25:30.191Z,7.77
2023-04-08T23:27:56.927Z,9.33
2023-04-08T23:30:23.584Z,8.93
2023-04-08T23:32:50.236Z,7.90
2023-04-08T23:35:17.214Z,8.90
2023-04-08T23:37:43.883Z,8.53
2023-04-08T23:40:10.836Z,8.40
2023-04-08T23:42:37.561Z,7.50
2023-04-08T23:45:04.859Z,7.10
2023-04-08T23:47:31.583Z,8.47
2023-04-08T23:49:58.314Z,7.67
2023-04-08T23:52:25.319Z,8.40
2023-04-08T23:54:52.074Z,8.77
2023-04-08T23:57:20.287Z,7.63
2023-04-08T23:59:47.354Z,7.13
